Time;durP1;ratioP1;P1;durP2;ratioP2;P2;SDS_P1;SDS_P2;PMS_P1;PMS_P2;Temp;Humidity;BMP_temperature;BMP_pressure;BME280_temperature;BME280_humidity;BME280_pressure;Samples;Min_cycle;Max_cycle;Signal;HPM_P1;HPM_P2
2022/06/16 00:01:01;;;;;;;16.95;9.55;;;;;;;17.18;55.15;101768.13;5093597;28;20046;-55
2022/06/16 00:03:27;;;;;;;17.85;9.55;;;;;;;17.17;55.47;101764.53;5094228;28;20016;-56
2022/06/16 00:05:52;;;;;;;19.05;9.68;;;;;;;17.22;54.97;101767.16;5094326;28;20028;-56
2022/06/16 00:08:18;;;;;;;19.50;10.18;;;;;;;17.23;54.94;101760.41;5094310;28;20103;-54
2022/06/16 00:13:31;;;;;;;17.83;10.02;;;;;;;17.20;55.07;101763.03;5094380;28;20123;-55
2022/06/16 00:15:57;;;;;;;17.58;9.35;;;;;;;17.17;54.88;101764.53;5093559;28;20040;-55
2022/06/16 00:18:23;;;;;;;19.40;9.73;;;;;;;17.09;55.60;101760.56;5093402;28;20394;-55
2022/06/16 00:20:48;;;;;;;19.73;10.38;;;;;;;17.11;55.02;101765.81;5093702;28;20103;-56
2022/06/16 00:23:13;;;;;;;20.63;10.20;;;;;;;17.09;55.62;101762.56;5093411;28;20363;-55
2022/06/16 00:25:39;;;;;;;18.60;10.30;;;;;;;17.08;55.09;101760.91;5093134;28;20032;-57
2022/06/16 00:28:04;;;;;;;18.92;10.77;;;;;;;17.05;55.21;101765.16;5093315;28;20032;-54
2022/06/16 00:30:29;;;;;;;19.73;11.70;;;;;;;16.98;54.93;101768.47;5093346;28;20486;-56
2022/06/16 00:32:54;;;;;;;18.33;11.25;;;;;;;17.01;55.23;101769.78;5093080;28;20042;-56
2022/06/16 00:35:20;;;;;;;19.40;11.40;;;;;;;16.99;55.21;101775.72;5093458;28;20030;-55
2022/06/16 00:37:45;;;;;;;18.42;11.18;;;;;;;16.92;55.21;101774.50;5092489;28;20676;-55
2022/06/16 00:40:11;;;;;;;19.95;11.57;;;;;;;16.83;55.51;101775.31;5093277;28;20365;-56
2022/06/16 00:42:37;;;;;;;19.52;11.40;;;;;;;16.80;55.39;101778.75;5093063;28;20043;-57
2022/06/16 00:45:40;;;;;;;19.40;11.15;;;;;;;16.81;55.44;101776.81;5093008;28;20437;-55
2022/06/16 00:48:06;;;;;;;18.25;11.20;;;;;;;16.70;55.87;101779.06;5093166;28;20024;-56
2022/06/16 00:50:31;;;;;;;18.55;10.98;;;;;;;16.65;56.32;101782.03;5092920;28;20039;-57
2022/06/16 00:52:56;;;;;;;18.48;11.48;;;;;;;16.58;56.19;101779.72;5092864;28;20024;-56
2022/06/16 00:55:22;;;;;;;19.45;11.70;;;;;;;16.52;56.31;101787.41;5093320;28;20024;-56
2022/06/16 00:57:49;;;;;;;17.60;11.57;;;;;;;16.44;56.49;101779.84;5092544;28;20108;-56
2022/06/16 01:00:28;;;;;;;18.95;11.80;;;;;;;16.44;56.92;101790.16;5092685;28;20035;-58
2022/06/16 01:02:53;;;;;;;18.85;11.15;;;;;;;16.42;56.66;101786.91;5092707;28;20617;-56
2022/06/16 01:05:18;;;;;;;19.52;11.20;;;;;;;16.36;56.70;101789.00;5092366;28;20024;-56
2022/06/16 01:07:46;;;;;;;19.15;11.32;;;;;;;16.31;56.78;101784.38;5092597;28;20013;-56
2022/06/16 01:10:15;;;;;;;18.90;10.85;;;;;;;16.18;57.23;101774.97;5092678;28;20063;-57
2022/06/16 01:16:02;;;;;;;18.33;11.13;;;;;;;16.12;57.49;101792.19;5092346;28;20134;-57
2022/06/16 01:18:49;;;;;;;19.25;11.40;;;;;;;16.05;57.72;101787.91;5092497;28;20095;-55
2022/06/16 01:21:33;;;;;;;19.17;11.07;;;;;;;15.96;57.52;101783.41;5092194;28;20221;-55
2022/06/16 01:24:35;;;;;;;19.73;11.48;;;;;;;15.98;57.69;101807.03;5092077;28;20024;-54
2022/06/16 01:27:39;;;;;;;19.95;11.82;;;;;;;15.91;58.10;101798.31;5091495;28;20098;-54
2022/06/16 01:30:04;;;;;;;18.15;11.48;;;;;;;15.84;58.57;101809.91;5091255;28;20459;-55
2022/06/16 01:32:59;;;;;;;19.52;12.05;;;;;;;15.82;58.45;101814.16;5091778;28;20027;-55
2022/06/16 01:35:44;;;;;;;20.30;11.82;;;;;;;15.77;58.46;101822.66;5092100;28;20036;-54
2022/06/16 01:38:17;;;;;;;18.65;11.38;;;;;;;15.69;59.29;101825.06;5090444;28;20020;-53
2022/06/16 01:40:53;;;;;;;19.47;11.67;;;;;;;15.68;59.21;101817.81;5092019;28;20032;-53
2022/06/16 01:43:28;;;;;;;20.27;11.13;;;;;;;15.62;59.62;101821.06;5091739;28;20035;-53
2022/06/16 01:46:01;;;;;;;17.40;11.68;;;;;;;15.54;59.76;101808.72;5091680;28;20031;-54
2022/06/16 01:48:29;;;;;;;18.70;11.32;;;;;;;15.52;59.94;101816.56;5090656;28;20031;-54
2022/06/16 01:50:59;;;;;;;18.27;11.00;;;;;;;15.50;59.86;101827.19;5091666;28;20135;-56
2022/06/16 01:54:12;;;;;;;19.88;11.88;;;;;;;15.45;59.76;101825.34;5091376;28;20342;-54
2022/06/16 01:56:44;;;;;;;19.05;11.63;;;;;;;15.33;60.39;101814.78;5090478;28;20478;-50
2022/06/16 01:59:18;;;;;;;19.00;11.73;;;;;;;15.24;60.44;101805.50;5090796;28;20031;-54
2022/06/16 02:01:49;;;;;;;20.30;11.40;;;;;;;15.12;61.14;101804.09;5090062;28;20031;-53
2022/06/16 02:04:20;;;;;;;18.92;11.38;;;;;;;15.10;60.88;101814.75;5091325;28;20077;-54
2022/06/16 02:06:50;;;;;;;18.80;11.52;;;;;;;15.08;61.22;101811.44;5091359;28;20036;-54
2022/06/16 02:09:27;;;;;;;19.55;11.63;;;;;;;15.07;61.06;101820.09;5091599;28;20020;-56
2022/06/16 02:11:55;;;;;;;19.63;12.23;;;;;;;15.03;61.81;101813.53;5091289;28;20051;-53
2022/06/16 02:14:32;;;;;;;19.15;10.90;;;;;;;14.95;61.24;101806.72;5091051;28;20035;-55
2022/06/16 02:16:58;;;;;;;18.50;10.90;;;;;;;14.95;61.90;101803.94;5091080;28;20024;-54
2022/06/16 02:19:26;;;;;;;20.25;12.05;;;;;;;14.88;61.75;101811.91;5089238;28;20020;-54
2022/06/16 02:21:53;;;;;;;19.30;11.52;;;;;;;14.80;62.01;101808.72;5090890;28;20122;-55
2022/06/16 02:24:20;;;;;;;19.17;12.20;;;;;;;14.73;62.17;101813.88;5091119;28;20335;-57
2022/06/16 02:26:47;;;;;;;20.23;12.48;;;;;;;14.76;62.08;101818.81;5074946;22;20574;-46
2022/06/16 02:29:23;;;;;;;21.95;13.63;;;;;;;14.64;62.38;101824.06;5051551;28;20024;-47
2022/06/16 02:32:13;;;;;;;18.73;11.50;;;;;;;14.59;62.56;101827.78;5050260;28;20468;-46
2022/06/16 02:34:50;;;;;;;18.77;11.23;;;;;;;14.56;62.31;101828.41;5066006;28;20107;-49
2022/06/16 02:37:28;;;;;;;17.85;11.25;;;;;;;14.56;62.39;101835.91;5050837;28;20104;-45
2022/06/16 02:40:50;;;;;;;20.88;11.32;;;;;;;14.60;61.43;101848.91;5050984;28;20029;-49
2022/06/16 02:43:45;;;;;;;18.98;11.57;;;;;;;14.56;62.51;101860.97;5008314;28;20038;-46
2022/06/16 02:46:49;;;;;;;20.23;12.18;;;;;;;14.47;63.27;101870.03;5007776;28;20029;-47
2022/06/16 02:49:23;;;;;;;20.10;12.47;;;;;;;14.40;63.67;101857.69;5005542;28;20040;-46
2022/06/16 02:51:56;;;;;;;19.23;12.77;;;;;;;14.31;63.88;101857.56;5049280;28;20021;-46
2022/06/16 02:54:32;;;;;;;;;;;;;;;14.36;63.20;101863.00;5051101;28;20036;-47
2022/06/16 02:57:12;;;;;;;20.42;12.43;;;;;;;14.23;64.58;101866.63;5050311;28;19959;-46
2022/06/16 02:59:52;;;;;;;21.45;12.50;;;;;;;14.15;64.09;101868.97;5051661;28;20033;-46
2022/06/16 03:02:22;;;;;;;20.92;12.45;;;;;;;14.16;64.93;101865.06;5055035;28;20268;-48
2022/06/16 03:04:53;;;;;;;21.58;12.23;;;;;;;14.15;64.38;101873.69;5054901;28;20386;-47
2022/06/16 03:07:19;;;;;;;20.15;12.23;;;;;;;14.11;64.25;101867.91;5055279;28;20045;-46
2022/06/16 03:09:45;;;;;;;20.55;12.52;;;;;;;14.06;64.77;101873.59;5054682;28;20043;-49
2022/06/16 03:12:12;;;;;;;20.92;12.07;;;;;;;14.04;65.06;101867.50;5054558;28;20476;-50
2022/06/16 03:14:38;;;;;;;19.83;12.70;;;;;;;13.94;65.35;101864.88;5054234;28;20029;-50
2022/06/16 03:17:05;;;;;;;18.73;12.60;;;;;;;13.91;65.59;101871.06;5054270;28;20089;-50
2022/06/16 03:19:31;;;;;;;21.15;12.02;;;;;;;13.89;65.67;101869.41;5054453;28;20100;-47
2022/06/16 03:21:56;;;;;;;20.50;12.65;;;;;;;13.83;65.42;101869.81;5054265;28;20112;-47
2022/06/16 03:24:22;;;;;;;21.38;12.77;;;;;;;13.82;65.63;101880.09;5053851;28;20387;-50
2022/06/16 03:26:48;;;;;;;20.80;12.32;;;;;;;13.76;65.99;101878.53;5054268;28;20049;-50
2022/06/16 03:29:14;;;;;;;19.70;12.82;;;;;;;13.74;65.86;101883.56;5054648;28;20029;-48
2022/06/16 03:31:39;;;;;;;20.20;13.20;;;;;;;13.68;65.81;101868.09;5054326;28;20494;-47
2022/06/16 03:34:05;;;;;;;20.88;13.65;;;;;;;13.67;65.96;101867.25;5054462;28;20072;-46
2022/06/16 03:36:31;;;;;;;20.92;13.02;;;;;;;13.62;66.31;101866.50;5053761;28;20017;-46
2022/06/16 03:38:57;;;;;;;20.98;12.55;;;;;;;13.60;66.42;101866.00;5054192;28;20234;-46
2022/06/16 03:41:22;;;;;;;21.25;12.70;;;;;;;13.65;66.90;101875.06;5053583;28;20158;-47
2022/06/16 03:43:47;;;;;;;20.38;12.52;;;;;;;13.62;66.56;101886.81;5053450;28;20079;-49
2022/06/16 03:46:14;;;;;;;21.65;12.48;;;;;;;13.77;66.16;101893.25;5053272;28;20045;-47
2022/06/16 03:48:40;;;;;;;20.33;12.52;;;;;;;14.18;64.70;101896.16;5053988;28;20119;-47
2022/06/16 03:51:06;;;;;;;20.88;12.00;;;;;;;14.50;63.83;101902.84;5053942;28;20498;-46
2022/06/16 03:53:32;;;;;;;20.35;12.43;;;;;;;14.85;62.54;101907.22;5054001;28;20033;-49
2022/06/16 03:55:57;;;;;;;20.42;12.05;;;;;;;15.16;61.18;101904.63;5053940;28;20036;-49
2022/06/16 03:58:23;;;;;;;19.83;12.52;;;;;;;15.08;61.42;101920.13;5053014;28;20023;-47
2022/06/16 04:00:48;;;;;;;19.38;11.60;;;;;;;14.84;61.87;101914.78;5053936;28;20079;-47
2022/06/16 04:05:57;;;;;;;20.40;11.60;;;;;;;14.47;63.15;101916.56;5053876;28;20048;-47
2022/06/16 04:08:23;;;;;;;20.63;12.55;;;;;;;14.29;63.54;101915.47;5053866;28;20021;-47
2022/06/16 04:10:48;;;;;;;20.35;12.05;;;;;;;14.15;64.05;101915.44;5052596;28;20448;-47
2022/06/16 04:13:15;;;;;;;20.05;12.13;;;;;;;14.03;64.61;101924.28;5053410;28;20112;-47
2022/06/16 04:15:41;;;;;;;20.65;12.45;;;;;;;13.93;64.68;101916.94;5053977;28;20033;-47
2022/06/16 04:18:07;;;;;;;19.77;11.60;;;;;;;13.87;64.92;101923.69;5053784;28;20025;-46
2022/06/16 04:20:32;;;;;;;20.92;11.63;;;;;;;13.82;65.04;101926.56;5052778;28;20051;-46
2022/06/16 04:22:58;;;;;;;20.02;11.90;;;;;;;13.74;65.33;101928.06;5053351;28;20056;-46
2022/06/16 04:25:32;;;;;;;20.60;11.80;;;;;;;13.72;65.45;101920.03;5052614;28;20456;-46
2022/06/16 04:28:03;;;;;;;21.67;13.00;;;;;;;13.71;65.74;101921.16;5053024;28;20040;-46
2022/06/16 04:30:29;;;;;;;19.77;12.77;;;;;;;13.71;65.65;101925.88;5053485;28;20115;-48
2022/06/16 04:32:57;;;;;;;19.63;12.38;;;;;;;13.73;65.86;101930.03;5052263;28;20021;-48
2022/06/16 04:35:22;;;;;;;21.05;12.10;;;;;;;13.78;65.90;101933.84;5053116;28;20041;-46
2022/06/16 04:37:48;;;;;;;21.77;12.43;;;;;;;13.77;66.20;101932.19;5052920;28;20082;-46
2022/06/16 04:40:13;;;;;;;21.05;12.23;;;;;;;13.80;66.14;101937.97;5053354;28;20029;-46
2022/06/16 04:42:38;;;;;;;22.80;12.52;;;;;;;13.83;66.08;101936.56;5053039;28;20455;-46
2022/06/16 04:45:04;;;;;;;21.95;12.82;;;;;;;13.88;65.79;101948.44;5052997;28;20480;-50
2022/06/16 04:47:30;;;;;;;21.23;12.63;;;;;;;13.85;65.93;101946.25;5051950;28;20037;-50
2022/06/16 04:49:55;;;;;;;21.20;12.45;;;;;;;13.93;65.54;101950.31;5053231;28;20029;-48
2022/06/16 04:52:21;;;;;;;21.33;12.68;;;;;;;13.99;65.39;101962.16;5053730;28;20110;-50
2022/06/16 04:54:47;;;;;;;21.90;12.07;;;;;;;14.04;65.25;101953.75;5053811;28;20033;-47
2022/06/16 04:57:13;;;;;;;22.60;12.63;;;;;;;14.12;65.01;101949.47;5053152;28;20029;-44
2022/06/16 04:59:39;;;;;;;23.92;12.90;;;;;;;14.12;64.80;101961.41;5052091;28;20090;-47
2022/06/16 05:02:04;;;;;;;20.83;12.70;;;;;;;14.22;64.61;101965.16;5053312;28;20029;-48
2022/06/16 05:04:30;;;;;;;20.67;12.75;;;;;;;14.19;64.11;101967.41;5053188;28;20411;-49
2022/06/16 05:06:56;;;;;;;20.90;13.50;;;;;;;14.21;63.83;101969.91;5053267;28;20165;-46
2022/06/16 05:09:23;;;;;;;21.63;13.20;;;;;;;14.25;64.07;101970.94;5053510;28;20040;-49
2022/06/16 05:11:48;;;;;;;20.48;12.85;;;;;;;14.37;63.65;101976.00;5053485;28;20033;-48
2022/06/16 05:14:14;;;;;;;20.15;12.43;;;;;;;14.43;63.83;101969.25;5053403;28;20095;-49
2022/06/16 05:16:39;;;;;;;22.23;13.35;;;;;;;14.41;63.42;101974.28;5053521;28;20111;-51
2022/06/16 05:19:05;;;;;;;22.65;13.13;;;;;;;14.45;63.40;101982.84;5053251;28;20037;-45
2022/06/16 05:21:30;;;;;;;22.90;12.82;;;;;;;14.51;63.45;101985.25;5052936;28;20025;-49
2022/06/16 05:23:55;;;;;;;21.05;12.95;;;;;;;14.48;62.38;102005.34;5052559;28;20039;-49
2022/06/16 05:26:21;;;;;;;21.13;13.32;;;;;;;14.50;62.23;102000.31;5052420;28;20120;-50
2022/06/16 05:28:46;;;;;;;20.65;12.98;;;;;;;14.60;62.75;102001.25;5052969;28;20032;-50
2022/06/16 05:31:11;;;;;;;21.90;13.00;;;;;;;14.65;61.92;102002.00;5052075;28;20112;-48
2022/06/16 05:33:37;;;;;;;21.27;12.27;;;;;;;14.74;61.96;101999.34;5052902;28;20106;-49
2022/06/16 05:36:07;;;;;;;21.25;12.35;;;;;;;14.85;61.36;102002.78;5051586;28;20106;-45
2022/06/16 05:38:34;;;;;;;19.60;11.88;;;;;;;14.87;60.82;102008.88;5052521;28;20531;-48
2022/06/16 05:41:02;;;;;;;20.60;12.02;;;;;;;14.98;60.42;102004.75;5051819;28;20029;-47
2022/06/16 05:43:29;;;;;;;19.52;11.95;;;;;;;15.04;60.78;101997.13;5052405;28;20100;-48
2022/06/16 05:45:54;;;;;;;20.50;11.40;;;;;;;15.16;59.80;102010.53;5051468;28;20025;-46
2022/06/16 05:48:20;;;;;;;20.17;11.40;;;;;;;15.28;59.55;102012.81;5051604;28;20021;-49
2022/06/16 05:50:46;;;;;;;18.63;11.50;;;;;;;15.35;58.91;102018.81;5052119;28;20033;-46
2022/06/16 05:53:11;;;;;;;21.60;11.70;;;;;;;15.44;58.93;102018.94;5051021;28;20025;-50
2022/06/16 05:55:37;;;;;;;18.98;11.05;;;;;;;15.53;57.92;102019.00;5052295;28;20079;-47
2022/06/16 05:58:02;;;;;;;18.95;11.27;;;;;;;15.59;57.34;102012.16;5052424;28;20106;-49
2022/06/16 06:00:29;;;;;;;17.65;10.15;;;;;;;15.66;56.08;102023.75;5052588;28;20036;-47
2022/06/16 06:02:58;;;;;;;20.40;10.55;;;;;;;15.60;55.32;102006.28;5052745;28;20033;-50
2022/06/16 06:05:25;;;;;;;20.67;10.88;;;;;;;15.75;55.96;102019.09;5052688;28;20104;-47
2022/06/16 06:18:46;;;;;;;17.10;9.20;;;;;;;16.27;49.38;102026.28;5052475;28;20406;-50
2022/06/16 06:21:11;;;;;;;17.23;9.07;;;;;;;16.37;48.78;102030.81;5052120;28;20025;-50
2022/06/16 06:23:36;;;;;;;16.48;9.05;;;;;;;16.45;48.86;102023.63;5041383;28;20117;-47
2022/06/16 06:26:02;;;;;;;14.82;8.38;;;;;;;16.51;48.02;102025.16;5028618;28;20202;-48
2022/06/16 06:28:27;;;;;;;15.63;8.73;;;;;;;16.53;47.82;102020.91;5028883;28;20419;-48
2022/06/16 06:30:53;;;;;;;16.38;8.80;;;;;;;16.52;48.42;102033.22;5029959;28;20036;-54
2022/06/16 06:33:18;;;;;;;14.60;8.27;;;;;;;16.61;48.37;102032.44;5027889;28;20026;-51
2022/06/16 06:35:43;;;;;;;16.27;8.40;;;;;;;16.61;47.23;102026.84;5029466;28;20033;-50
2022/06/16 06:38:09;;;;;;;14.75;8.43;;;;;;;16.64;47.43;102029.03;5037902;28;20070;-49
2022/06/16 06:40:36;;;;;;;16.38;8.25;;;;;;;16.69;47.17;102038.09;5032347;28;20040;-49
2022/06/16 06:43:02;;;;;;;14.45;8.23;;;;;;;16.77;47.93;102042.06;5048704;28;20122;-49
2022/06/16 06:45:28;;;;;;;15.55;8.10;;;;;;;16.82;46.99;102041.09;5048066;28;20025;-48
2022/06/16 06:47:55;;;;;;;15.52;8.10;;;;;;;16.88;47.41;102045.44;5040594;28;20127;-49
2022/06/16 06:50:23;;;;;;;14.98;8.18;;;;;;;16.75;46.15;102024.81;5028163;28;20034;-51
2022/06/16 06:52:49;;;;;;;14.85;8.23;;;;;;;16.80;45.47;102044.22;5040886;28;20036;-49
2022/06/16 06:55:15;;;;;;;16.60;8.25;;;;;;;16.85;46.01;102048.88;5049924;28;20111;-49
2022/06/16 06:57:40;;;;;;;14.18;7.95;;;;;;;16.98;46.07;102056.38;5048326;28;20136;-50
2022/06/16 07:00:07;;;;;;;14.52;7.80;;;;;;;16.99;45.95;102063.63;5049529;28;20028;-48
2022/06/16 07:02:32;;;;;;;14.10;7.95;;;;;;;17.04;46.10;102064.63;5049916;28;20446;-48
2022/06/16 07:04:57;;;;;;;15.43;8.02;;;;;;;17.17;46.85;102062.88;5049603;28;20033;-48
2022/06/16 07:07:24;;;;;;;14.55;7.50;;;;;;;17.29;46.73;102063.09;5047993;28;20064;-48
2022/06/16 07:09:50;;;;;;;15.88;8.27;;;;;;;17.46;46.98;102067.94;5049673;28;20107;-50
2022/06/16 07:12:17;;;;;;;15.02;8.20;;;;;;;17.52;46.46;102072.22;5049854;28;20682;-49
2022/06/16 07:14:44;;;;;;;13.55;8.02;;;;;;;17.54;45.83;102071.91;5049906;28;20091;-51
2022/06/16 07:17:10;;;;;;;13.10;8.07;;;;;;;17.62;45.32;102069.13;5049926;28;20064;-49
2022/06/16 07:19:36;;;;;;;16.17;8.15;;;;;;;17.76;46.16;102076.56;5048448;28;20043;-49
2022/06/16 07:22:04;;;;;;;17.67;8.05;;;;;;;17.87;46.26;102066.72;5050078;28;20033;-51
2022/06/16 07:24:29;;;;;;;15.40;7.75;;;;;;;18.03;45.09;102071.91;5049955;28;20033;-51
2022/06/16 07:26:54;;;;;;;11.23;7.78;;;;;;;17.99;43.94;102080.13;5049429;28;20476;-49
2022/06/16 07:29:20;;;;;;;13.98;7.68;;;;;;;17.96;44.26;102091.09;5049276;28;20035;-48
2022/06/16 07:31:45;;;;;;;12.93;8.02;;;;;;;17.85;43.62;102091.44;5049012;28;20057;-48
2022/06/16 07:34:11;;;;;;;13.00;7.53;;;;;;;17.98;43.99;102092.47;5048946;28;20333;-49
2022/06/16 07:36:37;;;;;;;12.60;8.15;;;;;;;17.98;43.93;102092.47;5032955;28;20108;-50
2022/06/16 07:39:04;;;;;;;14.85;7.68;;;;;;;18.04;44.55;102104.34;5030539;28;20196;-48
2022/06/16 07:41:34;;;;;;;14.05;7.68;;;;;;;18.17;44.12;102108.97;5029658;28;20029;-49
2022/06/16 07:44:01;;;;;;;13.95;7.75;;;;;;;18.34;44.03;102115.72;5031040;28;20409;-50
2022/06/16 07:46:26;;;;;;;14.38;8.00;;;;;;;18.37;43.39;102118.69;5032393;28;20033;-48
2022/06/16 07:48:52;;;;;;;14.85;8.13;;;;;;;18.43;44.29;102118.53;5035113;28;20080;-52
2022/06/16 07:51:19;;;;;;;12.30;7.57;;;;;;;18.54;44.18;102123.47;5034758;28;20025;-52
2022/06/16 07:53:45;;;;;;;13.10;7.82;;;;;;;18.69;44.59;102119.34;5034766;28;20044;-53
2022/06/16 07:56:10;;;;;;;15.15;7.97;;;;;;;18.86;43.68;102126.94;5034552;28;20353;-51
2022/06/16 07:58:35;;;;;;;14.57;7.78;;;;;;;18.87;43.56;102130.53;5033063;28;20079;-52
2022/06/16 08:01:04;;;;;;;12.98;7.70;;;;;;;18.93;43.77;102125.63;5034568;28;20028;-51
2022/06/16 08:03:29;;;;;;;14.70;7.90;;;;;;;18.88;43.56;102112.56;5034685;28;20075;-53
2022/06/16 08:05:57;;;;;;;14.00;7.90;;;;;;;18.96;44.18;102113.75;5034577;28;20446;-51
2022/06/16 08:08:24;;;;;;;14.73;7.63;;;;;;;19.05;42.26;102131.38;5034302;28;20022;-50
2022/06/16 08:10:52;;;;;;;14.80;7.50;;;;;;;18.85;42.93;102116.88;5034709;28;20492;-51
2022/06/16 08:13:18;;;;;;;13.85;7.70;;;;;;;19.03;43.42;102133.69;5034602;28;20030;-51
2022/06/16 08:15:46;;;;;;;15.68;7.65;;;;;;;19.02;42.59;102130.06;5034466;28;20029;-50
2022/06/16 08:18:13;;;;;;;14.98;8.35;;;;;;;19.07;42.52;102122.63;5034605;28;20083;-48
2022/06/16 08:20:39;;;;;;;13.52;7.40;;;;;;;19.19;42.62;102133.97;5034414;28;20032;-51
2022/06/16 08:23:04;;;;;;;15.43;7.80;;;;;;;19.20;41.51;102132.00;5034322;28;20018;-49
2022/06/16 08:25:30;;;;;;;14.40;7.35;;;;;;;19.23;41.13;102136.94;5033930;28;20109;-49
2022/06/16 08:27:55;;;;;;;15.23;7.90;;;;;;;19.35;42.18;102137.06;5034432;28;20034;-49
2022/06/16 08:30:23;;;;;;;14.38;7.60;;;;;;;19.51;41.52;102142.13;5034243;28;20414;-48
2022/06/16 08:32:48;;;;;;;17.75;7.93;;;;;;;19.69;41.66;102148.50;5042689;28;20025;-49
2022/06/16 08:35:14;;;;;;;13.75;8.07;;;;;;;19.60;40.92;102143.72;5054609;28;20040;-48
2022/06/16 08:37:39;;;;;;;15.02;7.95;;;;;;;19.59;41.28;102156.13;5053952;28;20060;-48
2022/06/16 08:40:06;;;;;;;14.27;7.90;;;;;;;19.68;41.58;102136.44;5054016;28;20029;-51
2022/06/16 08:42:52;;;;;;;16.80;8.40;;;;;;;19.70;41.22;102139.72;5053997;28;20039;-48
2022/06/16 08:45:36;;;;;;;12.25;7.68;;;;;;;19.75;42.28;102131.09;5054037;28;20060;-49
2022/06/16 08:48:26;;;;;;;16.35;8.70;;;;;;;19.82;40.98;102112.94;5054578;28;20124;-48
2022/06/16 08:51:16;;;;;;;14.55;7.90;;;;;;;19.94;40.60;102116.69;5054331;28;20107;-48
2022/06/16 08:54:13;;;;;;;13.35;7.72;;;;;;;19.90;40.92;102115.69;5054218;28;20032;-48
2022/06/16 08:57:00;;;;;;;14.07;8.30;;;;;;;19.95;40.46;102117.50;5050349;28;20077;-50
2022/06/16 08:59:46;;;;;;;14.73;7.88;;;;;;;20.00;40.23;102125.72;5053420;28;20032;-48
2022/06/16 09:02:34;;;;;;;15.70;7.95;;;;;;;20.10;40.11;102136.56;5053434;28;20075;-49
2022/06/16 09:05:16;;;;;;;14.38;7.85;;;;;;;20.10;40.12;102146.97;5053481;28;20470;-48
2022/06/16 09:07:54;;;;;;;16.08;8.10;;;;;;;20.08;40.46;102152.09;5053760;28;20491;-50
2022/06/16 09:10:25;;;;;;;17.92;8.00;;;;;;;20.15;39.77;102157.19;5053296;28;20036;-49
2022/06/16 09:13:09;;;;;;;14.88;8.15;;;;;;;20.16;40.39;102156.03;5053544;28;20025;-52
2022/06/16 09:15:53;;;;;;;18.90;8.80;;;;;;;20.42;40.97;102162.28;5052592;28;20395;-48
2022/06/16 09:18:48;;;;;;;14.55;8.07;;;;;;;20.60;40.44;102162.13;5053934;28;20029;-51
2022/06/16 09:21:43;;;;;;;17.83;9.02;;;;;;;20.80;40.50;102160.53;5053350;28;20411;-49
2022/06/16 09:24:40;;;;;;;16.60;8.63;;;;;;;20.92;39.54;102162.56;5037551;28;20040;-49
2022/06/16 09:27:17;;;;;;;14.93;8.35;;;;;;;20.85;39.29;102179.19;5047679;28;20124;-49
2022/06/16 09:29:56;;;;;;;15.07;8.30;;;;;;;20.78;39.30;102171.28;5049306;28;20113;-48
2022/06/16 09:32:41;;;;;;;15.23;8.63;;;;;;;20.88;39.85;102173.69;5051582;28;20029;-51
2022/06/16 09:35:28;;;;;;;17.45;8.80;;;;;;;20.94;39.61;102168.69;5053253;28;20037;-51
2022/06/16 09:38:13;;;;;;;16.30;8.73;;;;;;;21.15;39.69;102173.44;5050946;28;20033;-46
2022/06/16 09:40:47;;;;;;;16.30;8.70;;;;;;;21.10;38.85;102162.38;5050949;28;20037;-48
2022/06/16 09:43:15;;;;;;;;;;;;;;;21.30;39.41;102178.41;5051121;28;20033;-48
2022/06/16 09:45:59;;;;;;;17.58;8.95;;;;;;;21.28;38.86;102177.91;5036197;28;20268;-48
2022/06/16 09:48:37;;;;;;;16.85;9.07;;;;;;;21.34;39.28;102176.53;5030227;28;20552;-50
2022/06/16 09:51:15;;;;;;;16.73;8.52;;;;;;;21.25;38.64;102172.16;5032532;28;20025;-51
2022/06/16 09:53:50;;;;;;;16.83;8.18;;;;;;;21.35;39.78;102154.84;5032530;28;20029;-51
2022/06/16 09:56:29;;;;;;;17.02;8.48;;;;;;;21.59;39.06;102167.31;5032734;28;20065;-50
2022/06/16 09:59:01;;;;;;;16.42;8.75;;;;;;;21.72;38.99;102165.38;5032680;28;20451;-51
2022/06/16 10:01:34;;;;;;;15.52;8.43;;;;;;;21.82;39.05;102164.91;5032369;28;20041;-48
2022/06/16 10:04:05;;;;;;;16.85;8.63;;;;;;;21.93;38.08;102174.50;5032450;28;20108;-49
2022/06/16 10:06:53;;;;;;;14.98;9.15;;;;;;;21.90;38.08;102172.41;5032609;28;20448;-49
2022/06/16 10:09:48;;;;;;;17.42;8.50;;;;;;;21.96;38.65;102173.81;5031504;28;20037;-51
2022/06/16 10:12:32;;;;;;;15.48;8.90;;;;;;;21.82;38.12;102176.16;5026586;28;20083;-48
2022/06/16 10:15:24;;;;;;;17.17;8.90;;;;;;;21.70;38.30;102181.78;5032384;28;20128;-48
2022/06/16 10:17:51;;;;;;;14.80;8.48;;;;;;;21.85;38.50;102180.28;5031750;28;20123;-50
2022/06/16 10:20:19;;;;;;;15.57;8.73;;;;;;;22.00;38.78;102173.91;5032169;28;20032;-50
2022/06/16 10:22:57;;;;;;;14.07;8.50;;;;;;;22.22;38.66;102157.69;5032458;28;20444;-49
2022/06/16 10:25:41;;;;;;;18.08;8.63;;;;;;;22.35;38.11;102164.94;5029364;28;20081;-48
2022/06/16 10:28:27;;;;;;;15.15;8.77;;;;;;;22.45;37.80;102163.66;5029584;28;20095;-48
2022/06/16 10:30:52;;;;;;;17.77;8.50;;;;;;;22.50;37.84;102157.78;5029905;28;20147;-49
2022/06/16 10:33:21;;;;;;;15.15;8.57;;;;;;;22.56;38.05;102162.00;5029671;28;20484;-50
2022/06/16 10:36:14;;;;;;;14.77;8.48;;;;;;;22.71;37.74;102165.22;5029176;28;20490;-48
2022/06/16 10:38:43;;;;;;;15.23;8.70;;;;;;;22.97;37.81;102169.56;5029545;28;20545;-47
2022/06/16 10:41:31;;;;;;;16.20;8.57;;;;;;;23.09;37.81;102171.53;5028827;28;20427;-48
2022/06/16 10:44:00;;;;;;;16.70;8.52;;;;;;;23.20;37.46;102175.50;5027745;28;20116;-48
2022/06/16 10:46:35;;;;;;;16.38;8.73;;;;;;;23.26;36.74;102170.41;5029106;28;20080;-50
2022/06/16 10:49:04;;;;;;;17.33;8.93;;;;;;;23.03;36.49;102168.16;5029765;28;20132;-51
2022/06/16 10:51:32;;;;;;;19.75;9.02;;;;;;;23.08;36.96;102176.34;5029742;28;20033;-50
2022/06/16 10:54:12;;;;;;;14.98;8.38;;;;;;;23.25;37.49;102182.88;5045402;28;20094;-51
2022/06/16 10:56:40;;;;;;;17.58;9.40;;;;;;;23.18;36.68;102191.97;5049518;28;20072;-52
2022/06/16 10:59:18;;;;;;;15.98;8.55;;;;;;;23.30;36.96;102183.44;5048777;28;20036;-49
2022/06/16 11:01:50;;;;;;;15.98;8.80;;;;;;;23.33;35.96;102188.38;5048859;28;20136;-49
2022/06/16 11:04:25;;;;;;;16.02;8.77;;;;;;;23.37;36.61;102188.47;5049490;28;20450;-50
2022/06/16 11:06:53;;;;;;;14.80;8.63;;;;;;;23.38;36.24;102175.97;5047880;28;20021;-48
2022/06/16 11:09:23;;;;;;;15.60;8.50;;;;;;;23.48;36.08;102164.16;5049199;28;20043;-48
2022/06/16 11:11:56;;;;;;;18.40;8.73;;;;;;;23.50;36.53;102175.91;5047928;28;20029;-49
2022/06/16 11:14:43;;;;;;;17.23;8.60;;;;;;;23.50;36.50;102177.91;5051122;28;20063;-49
2022/06/16 11:17:15;;;;;;;15.38;8.57;;;;;;;23.43;35.69;102178.53;5049313;28;20029;-49
2022/06/16 11:19:48;;;;;;;17.80;8.82;;;;;;;23.42;36.43;102182.56;5049994;28;20082;-50
2022/06/16 11:22:15;;;;;;;;;;;;;;;23.63;36.91;102181.44;5053922;28;20107;-50
2022/06/16 11:25:01;;;;;;;16.80;8.27;;;;;;;23.75;36.69;102177.75;5053351;28;19909;-48
2022/06/16 11:27:28;;;;;;;17.73;8.50;;;;;;;23.72;35.97;102167.97;5055281;28;20168;-49
2022/06/16 11:29:54;;;;;;;14.57;8.10;;;;;;;23.73;36.35;102163.97;5055364;28;20117;-50
2022/06/16 11:32:31;;;;;;;16.33;8.80;;;;;;;23.53;35.47;102149.75;5053965;28;20503;-48
2022/06/16 11:34:56;;;;;;;16.98;8.52;;;;;;;23.55;36.36;102163.53;5054048;28;20086;-50
2022/06/16 11:37:38;;;;;;;17.75;9.02;;;;;;;23.56;35.60;102161.50;5054887;28;20048;-48
2022/06/16 11:40:22;;;;;;;16.88;8.70;;;;;;;23.49;36.46;102164.97;5054755;28;20043;-49
2022/06/16 11:43:05;;;;;;;18.33;8.57;;;;;;;23.46;36.26;102172.16;5055034;28;20047;-51
2022/06/16 11:45:49;;;;;;;15.93;9.38;;;;;;;23.73;36.47;102168.81;5054627;28;20021;-51
2022/06/16 11:48:22;;;;;;;15.25;8.98;;;;;;;23.65;35.81;102159.31;5054783;28;20029;-47
2022/06/16 11:50:58;;;;;;;17.10;9.43;;;;;;;23.52;36.31;102165.03;5052571;28;20032;-48
2022/06/16 11:53:40;;;;;;;14.77;8.60;;;;;;;23.74;36.75;102157.13;5054989;28;20044;-48